Time;durP1;ratioP1;P1;durP2;ratioP2;P2;SDS_P1;SDS_P2;PMS_P1;PMS_P2;Temp;Humidity;BMP_temperature;BMP_pressure;BME280_temperature;BME280_humidity;BME280_pressure;Samples;Min_cycle;Max_cycle;Signal;HPM_P1;HPM_P2
2022/06/06 00:00:05;;;;;;;8.05;5.47;;;15.10;99.90;;;;;;5188641;28;20033;-74
2022/06/06 00:02:36;;;;;;;6.20;5.57;;;15.20;99.90;;;;;;5188747;28;20468;-74
2022/06/06 00:05:13;;;;;;;7.13;5.00;;;14.90;99.90;;;;;;5188617;28;20026;-74
2022/06/06 00:07:44;;;;;;;7.22;5.70;;;15.10;99.90;;;;;;5188691;28;20022;-74
2022/06/06 00:10:14;;;;;;;8.70;5.22;;;14.90;99.90;;;;;;5188581;28;20021;-74
2022/06/06 00:12:45;;;;;;;6.10;5.53;;;14.90;99.90;;;;;;5188589;28;20037;-74
2022/06/06 00:15:16;;;;;;;6.13;5.53;;;14.80;99.90;;;;;;5188335;28;20382;-74
2022/06/06 00:17:46;;;;;;;6.03;5.28;;;15.20;99.90;;;;;;5187059;28;20026;-74
2022/06/06 00:20:17;;;;;;;6.70;5.53;;;15.20;99.90;;;;;;5188528;28;20816;-75
2022/06/06 00:22:49;;;;;;;7.53;4.47;;;15.20;99.90;;;;;;5186623;28;20036;-74
2022/06/06 00:25:20;;;;;;;7.80;4.80;;;15.30;99.90;;;;;;5187987;28;20026;-74
2022/06/06 00:27:51;;;;;;;7.60;5.10;;;14.80;99.90;;;;;;5188022;28;20030;-74
2022/06/06 00:30:22;;;;;;;7.68;5.55;;;14.80;99.90;;;;;;5188192;28;20040;-74
2022/06/06 00:35:42;;;;;;;7.43;4.97;;;14.90;99.90;;;;;;5188010;28;20560;-74
2022/06/06 00:38:13;;;;;;;6.00;5.40;;;15.10;99.90;;;;;;5187829;28;20026;-74
2022/06/06 00:40:48;;;;;;;7.18;5.07;;;15.00;99.90;;;;;;5187758;28;20142;-74
2022/06/06 00:43:19;;;;;;;5.68;4.95;;;15.00;99.90;;;;;;5187916;28;20018;-75
2022/06/06 00:45:54;;;;;;;6.85;5.53;;;15.10;99.90;;;;;;5186262;28;20076;-76
2022/06/06 00:48:37;;;;;;;8.05;5.57;;;14.60;99.90;;;;;;5187794;28;20026;-74
2022/06/06 00:51:15;;;;;;;11.00;6.70;;;14.50;99.90;;;;;;5187841;28;20433;-74
2022/06/06 00:53:52;;;;;;;7.60;5.47;;;14.30;99.90;;;;;;5187787;28;20042;-74
2022/06/06 00:56:38;;;;;;;8.45;6.25;;;14.50;99.90;;;;;;5187486;28;20111;-75
2022/06/06 00:59:17;;;;;;;7.38;5.70;;;14.40;99.90;;;;;;5187343;28;20108;-73
2022/06/06 01:01:57;;;;;;;7.85;5.63;;;14.30;99.90;;;;;;5202862;28;20036;-74
2022/06/06 01:04:34;;;;;;;7.10;5.82;;;14.50;99.90;;;;;;5187524;28;20350;-74
2022/06/06 01:07:11;;;;;;;10.80;5.78;;;14.30;99.90;;;;;;5186220;28;20478;-74
2022/06/06 01:09:47;;;;;;;10.65;6.53;;;14.20;99.90;;;;;;5186099;28;20563;-74
2022/06/06 01:12:23;;;;;;;7.03;5.57;;;14.40;99.90;;;;;;5186175;28;20037;-74
2022/06/06 01:14:58;;;;;;;8.05;6.10;;;14.70;99.90;;;;;;5185823;28;20042;-74
2022/06/06 01:17:40;;;;;;;9.15;5.68;;;14.90;99.90;;;;;;5185785;28;20022;-74
2022/06/06 01:20:46;;;;;;;8.80;6.05;;;14.70;99.90;;;;;;5185933;28;20032;-75
2022/06/06 01:23:41;;;;;;;7.47;5.22;;;14.60;99.90;;;;;;5187205;28;20029;-74
2022/06/06 01:26:40;;;;;;;6.53;5.47;;;14.30;99.90;;;;;;5187095;28;20025;-74
2022/06/06 01:29:27;;;;;;;7.55;5.30;;;14.20;99.90;;;;;;5187069;28;20042;-74
2022/06/06 01:32:05;;;;;;;7.47;5.68;;;14.60;99.90;;;;;;5185866;28;20462;-74
2022/06/06 01:34:40;;;;;;;12.25;6.65;;;14.40;99.90;;;;;;5186952;28;20351;-74
2022/06/06 01:37:31;;;;;;;9.52;6.13;;;14.40;99.90;;;;;;5186440;28;20025;-74
2022/06/06 01:40:06;;;;;;;7.13;5.95;;;14.50;99.90;;;;;;5186850;28;20037;-74
2022/06/06 01:42:51;;;;;;;8.90;6.20;;;14.30;99.90;;;;;;5186848;28;20133;-74
2022/06/06 01:45:41;;;;;;;7.05;5.65;;;14.50;99.90;;;;;;5202001;28;20030;-75
2022/06/06 01:48:20;;;;;;;7.65;5.32;;;14.60;99.90;;;;;;5185227;28;20030;-74
2022/06/06 01:50:51;;;;;;;12.13;5.28;;;14.70;99.90;;;;;;5186673;28;20022;-73
2022/06/06 01:53:25;;;;;;;8.50;5.82;;;14.50;99.90;;;;;;5186780;28;20041;-74
2022/06/06 01:55:56;;;;;;;10.38;5.35;;;14.20;99.90;;;;;;5186451;28;20408;-75
2022/06/06 01:58:30;;;;;;;6.45;5.63;;;14.50;99.90;;;;;;5186208;28;20121;-74
2022/06/06 02:01:02;;;;;;;6.35;5.75;;;14.30;99.90;;;;;;5185395;28;20022;-74
2022/06/06 02:03:34;;;;;;;9.65;5.80;;;14.20;99.90;;;;;;5186565;28;20022;-74
2022/06/06 02:06:05;;;;;;;9.30;5.70;;;14.00;99.90;;;;;;5186435;28;20111;-74
2022/06/06 02:08:37;;;;;;;6.95;5.88;;;13.90;99.90;;;;;;5185345;28;20085;-74
2022/06/06 02:11:08;;;;;;;8.93;6.25;;;14.10;99.90;;;;;;5186457;28;20068;-74
2022/06/06 02:13:39;;;;;;;10.23;6.20;;;14.00;99.90;;;;;;5201608;28;20084;-73
2022/06/06 02:16:11;;;;;;;9.00;6.20;;;13.70;99.90;;;;;;5186492;28;20034;-74
2022/06/06 02:18:42;;;;;;;7.82;6.07;;;14.10;99.90;;;;;;5186439;28;20105;-73
2022/06/06 02:21:12;;;;;;;11.77;6.70;;;13.90;99.90;;;;;;5186292;28;20025;-74
2022/06/06 02:23:43;;;;;;;8.85;6.18;;;14.10;99.90;;;;;;5186517;28;20026;-74
2022/06/06 02:26:15;;;;;;;9.32;5.57;;;13.90;99.90;;;;;;5186268;28;20061;-74
2022/06/06 02:28:46;;;;;;;6.75;5.97;;;14.20;99.90;;;;;;5186312;28;20034;-73
2022/06/06 02:31:17;;;;;;;8.32;5.45;;;14.00;99.90;;;;;;5185955;28;20034;-74
2022/06/06 02:33:48;;;;;;;7.35;6.28;;;13.70;99.90;;;;;;5186212;28;20034;-74
2022/06/06 02:36:19;;;;;;;12.38;6.78;;;13.70;99.90;;;;;;5186333;28;20029;-75
2022/06/06 02:38:50;;;;;;;8.93;6.15;;;14.20;99.90;;;;;;5186228;28;20041;-74
2022/06/06 02:41:22;;;;;;;10.60;5.97;;;14.00;99.90;;;;;;5186245;28;20026;-74
2022/06/06 02:43:53;;;;;;;9.93;6.40;;;13.80;99.90;;;;;;5186193;28;20021;-75
2022/06/06 02:46:24;;;;;;;9.07;6.65;;;13.60;99.90;;;;;;5186249;28;20495;-74
2022/06/06 02:48:55;;;;;;;8.63;6.18;;;13.80;99.90;;;;;;5189203;28;20026;-74
2022/06/06 02:51:26;;;;;;;7.85;6.13;;;14.00;99.90;;;;;;5189906;28;20048;-75
2022/06/06 02:53:56;;;;;;;7.85;5.70;;;14.30;99.90;;;;;;5188488;28;20030;-74
2022/06/06 02:56:27;;;;;;;7.45;5.65;;;14.10;99.90;;;;;;5189882;28;20084;-74
2022/06/06 02:59:03;;;;;;;7.35;6.15;;;14.30;99.90;;;;;;5189439;28;20482;-75
2022/06/06 03:01:35;;;;;;;9.85;6.60;;;14.40;99.90;;;;;;5189836;28;20117;-74
2022/06/06 03:04:06;;;;;;;8.95;6.47;;;13.90;99.90;;;;;;5189911;28;20034;-75
2022/06/06 03:07:09;;;;;;;7.85;6.68;;;13.80;99.90;;;;;;5189523;28;20045;-75
2022/06/06 03:10:13;;;;;;;11.48;7.22;;;13.90;99.90;;;;;;5189831;28;20014;-75
2022/06/06 03:13:10;;;;;;;8.02;6.53;;;14.10;99.90;;;;;;5188374;28;20029;-76
2022/06/06 03:20:46;;;;;;;7.68;5.82;;;14.10;99.90;;;;;;5189667;28;20417;-77
2022/06/06 03:22:20;;;;;;;9.60;6.03;;;14.30;99.90;;;;;;5163703;28;20101;-77
2022/06/06 03:25:12;;;;;;;7.78;6.45;;;14.30;99.90;;;;;;5167965;28;20458;-76
2022/06/06 03:27:50;;;;;;;8.68;5.55;;;14.50;99.90;;;;;;5169056;28;20034;-77
2022/06/06 03:30:25;;;;;;;7.40;5.40;;;14.50;99.90;;;;;;5169190;28;20117;-76
2022/06/06 03:33:32;;;;;;;6.75;4.90;;;14.40;99.90;;;;;;5168945;28;20489;-75
2022/06/06 03:36:16;;;;;;;7.88;5.38;;;14.60;99.90;;;;;;5168784;28;20113;-76
2022/06/06 03:38:50;;;;;;;8.18;5.40;;;14.80;99.90;;;;;;5183809;28;20429;-77
2022/06/06 03:41:35;;;;;;;8.45;4.95;;;15.20;99.90;;;;;;5168915;28;20481;-76
2022/06/06 03:44:26;;;;;;;6.15;5.20;;;15.20;99.90;;;;;;5168458;28;20033;-76
2022/06/06 03:47:17;;;;;;;9.20;5.13;;;14.90;99.90;;;;;;5167678;28;20443;-76
2022/06/06 03:50:17;;;;;;;5.18;4.38;;;15.20;99.90;;;;;;5167827;28;20026;-76
2022/06/06 03:52:55;;;;;;;8.35;5.22;;;14.80;99.90;;;;;;5166933;28;20030;-76
2022/06/06 03:55:32;;;;;;;9.90;4.90;;;15.00;99.90;;;;;;5167983;28;20048;-76
2022/06/06 03:58:04;;;;;;;5.18;4.68;;;15.40;99.90;;;;;;5167883;28;20101;-76
2022/06/06 04:00:35;;;;;;;8.73;4.32;;;15.80;99.90;;;;;;5167292;28;20038;-77
2022/06/06 04:03:07;;;;;;;5.07;4.50;;;16.20;99.90;;;;;;5167986;28;20018;-76
2022/06/06 04:05:38;;;;;;;10.65;5.28;;;16.10;99.90;;;;;;5167823;28;20026;-76
2022/06/06 04:08:10;;;;;;;7.50;5.30;;;16.20;99.90;;;;;;5168010;28;20030;-76
2022/06/06 04:11:22;;;;;;;6.07;4.45;;;16.40;99.90;;;;;;5168285;28;20023;-77
2022/06/06 04:14:22;;;;;;;9.75;6.25;;;16.60;99.90;;;;;;5168085;28;20025;-75
2022/06/06 04:17:23;;;;;;;11.00;7.97;;;16.40;99.90;;;;;;5165091;28;20038;-76
2022/06/06 04:20:19;;;;;;;11.95;7.53;;;16.40;99.90;;;;;;5166940;28;20399;-76
2022/06/06 04:23:22;;;;;;;16.45;8.35;;;16.40;99.90;;;;;;5167960;28;20107;-76
2022/06/06 04:26:11;;;;;;;7.32;5.70;;;16.40;99.90;;;;;;5167876;28;20030;-76
2022/06/06 04:28:52;;;;;;;9.13;6.32;;;16.50;99.90;;;;;;5167948;28;20025;-76
2022/06/06 04:31:55;;;;;;;9.98;6.82;;;16.90;99.90;;;;;;5167963;28;20056;-75
2022/06/06 04:34:35;;;;;;;7.68;5.75;;;17.10;99.90;;;;;;5143875;28;20081;-76
2022/06/06 04:37:30;;;;;;;11.10;4.93;;;17.00;99.90;;;;;;5166444;28;20346;-75
2022/06/06 04:40:35;;;;;;;6.60;4.60;;;17.30;99.90;;;;;;5166454;28;20032;-76
2022/06/06 04:43:31;;;;;;;5.25;4.15;;;17.60;99.90;;;;;;5167718;28;20133;-76
2022/06/06 04:46:10;;;;;;;5.50;3.95;;;17.60;99.90;;;;;;5167703;28;20026;-76
2022/06/06 04:48:43;;;;;;;4.85;3.88;;;18.00;99.90;;;;;;5166391;28;20026;-75
2022/06/06 04:51:19;;;;;;;5.70;4.22;;;18.00;99.90;;;;;;5167233;28;20033;-76
2022/06/06 04:53:54;;;;;;;6.07;4.90;;;18.20;99.90;;;;;;5167522;28;20081;-75
2022/06/06 04:56:25;;;;;;;12.07;6.57;;;18.30;99.90;;;;;;5167330;28;20429;-76
2022/06/06 04:59:00;;;;;;;10.18;6.10;;;18.50;99.90;;;;;;5166986;28;20046;-76
2022/06/06 05:01:32;;;;;;;8.77;5.72;;;18.20;99.90;;;;;;5166084;28;20030;-76
2022/06/06 05:04:04;;;;;;;9.45;6.00;;;18.70;99.90;;;;;;5167367;28;20101;-76
2022/06/06 05:06:43;;;;;;;10.80;6.03;;;18.40;99.90;;;;;;5165920;28;20026;-76
2022/06/06 05:09:33;;;;;;;7.35;5.60;;;18.70;99.90;;;;;;5165841;28;20026;-76
2022/06/06 05:12:10;;;;;;;8.68;5.90;;;19.10;99.90;;;;;;5164959;28;20113;-75
2022/06/06 05:15:08;;;;;;;9.20;5.65;;;19.50;99.90;;;;;;5166875;28;20034;-75
2022/06/06 05:17:54;;;;;;;9.45;5.88;;;19.60;99.90;;;;;;5167130;28;20490;-76
2022/06/06 05:20:40;;;;;;;7.78;4.55;;;19.60;99.90;;;;;;5166852;28;20031;-76
2022/06/06 05:23:40;;;;;;;8.05;4.85;;;19.30;99.90;;;;;;5166423;28;20030;-76
2022/06/06 05:26:32;;;;;;;7.97;4.35;;;19.50;99.90;;;;;;5166332;28;20146;-76
2022/06/06 05:29:03;;;;;;;6.57;4.60;;;19.80;99.90;;;;;;5166175;28;20117;-75
2022/06/06 05:32:01;;;;;;;8.32;5.13;;;20.10;99.90;;;;;;5166345;28;20566;-76
2022/06/06 05:34:42;;;;;;;8.10;4.68;;;20.00;99.90;;;;;;5166211;28;20429;-75
2022/06/06 05:37:37;;;;;;;9.45;4.50;;;19.90;99.90;;;;;;5166189;28;20529;-75
2022/06/06 05:40:28;;;;;;;6.88;4.53;;;20.00;99.90;;;;;;5164927;28;20069;-75
2022/06/06 05:43:18;;;;;;;7.38;4.38;;;20.40;99.90;;;;;;5166300;28;20033;-76
2022/06/06 05:46:15;;;;;;;6.80;4.25;;;20.30;99.90;;;;;;5168124;28;20026;-76
2022/06/06 05:48:58;;;;;;;5.80;4.18;;;20.40;99.90;;;;;;5161595;28;20040;-76
2022/06/06 05:51:37;;;;;;;6.43;4.13;;;20.70;99.90;;;;;;5186599;28;20022;-75
2022/06/06 05:54:41;;;;;;;5.22;4.13;;;20.70;99.90;;;;;;5186508;28;20034;-76
2022/06/06 05:57:33;;;;;;;9.98;4.20;;;20.90;99.90;;;;;;5186136;28;20493;-76
2022/06/06 06:00:37;;;;;;;8.95;5.10;;;21.30;99.90;;;;;;5185945;28;20122;-76
2022/06/06 06:03:26;;;;;;;31.92;5.60;;;21.90;99.90;;;;;;5182561;28;20085;-75
2022/06/06 06:06:32;;;;;;;7.15;4.45;;;22.00;99.90;;;;;;5186315;28;20029;-75
2022/06/06 06:09:29;;;;;;;8.93;5.00;;;22.20;99.90;;;;;;5166311;28;20087;-76
2022/06/06 06:12:25;;;;;;;10.35;4.72;;;22.60;99.90;;;;;;5186389;28;20109;-76
2022/06/06 06:15:01;;;;;;;5.85;3.83;;;22.60;99.90;;;;;;5186251;28;20069;-75
2022/06/06 06:17:34;;;;;;;9.60;4.53;;;22.50;99.90;;;;;;5186385;28;20037;-76
2022/06/06 06:20:13;;;;;;;5.68;4.40;;;22.60;99.90;;;;;;5186176;28;20504;-76
2022/06/06 06:23:01;;;;;;;9.20;4.45;;;22.90;99.90;;;;;;5187337;28;20049;-75
2022/06/06 06:25:34;;;;;;;12.57;4.03;;;23.00;99.90;;;;;;5190455;28;20018;-76
2022/06/06 06:28:11;;;;;;;8.50;4.30;;;22.80;99.90;;;;;;5190184;28;20410;-76
2022/06/06 06:31:03;;;;;;;8.98;4.53;;;22.80;99.90;;;;;;5190312;28;20382;-75
2022/06/06 06:33:48;;;;;;;5.32;3.55;;;23.50;99.90;;;;;;5190282;28;20029;-76
2022/06/06 06:36:52;;;;;;;14.50;3.78;;;23.30;99.90;;;;;;5190166;28;20034;-75
2022/06/06 06:39:49;;;;;;;5.70;3.50;;;22.90;99.90;;;;;;5190180;28;20022;-75
2022/06/06 06:43:03;;;;;;;8.63;3.63;;;23.20;99.90;;;;;;5190121;28;20433;-76
2022/06/06 06:45:42;;;;;;;11.10;4.03;;;23.70;99.90;;;;;;5161744;28;20038;-76
2022/06/06 06:48:23;;;;;;;7.32;3.80;;;23.40;99.90;;;;;;5189974;28;20076;-76
2022/06/06 06:51:03;;;;;;;7.10;3.50;;;23.20;99.90;;;;;;5189852;28;20037;-75
2022/06/06 06:53:33;;;;;;;;;;;23.50;99.90;;;;;;5190274;28;20026;-76
2022/06/06 06:56:33;;;;;;;7.30;3.60;;;23.60;99.90;;;;;;5189731;28;20950;-76
2022/06/06 06:59:36;;;;;;;8.45;4.00;;;23.90;99.90;;;;;;5189495;28;20069;-75
2022/06/06 07:08:49;;;;;;;7.90;3.55;;;23.80;99.90;;;;;;5189890;28;20536;-76
2022/06/06 07:11:58;;;;;;;9.73;4.38;;;24.00;99.90;;;;;;5189539;28;20022;-76
2022/06/06 07:14:53;;;;;;;9.93;5.03;;;23.90;99.90;;;;;;5166130;28;20041;-76
2022/06/06 07:17:26;;;;;;;10.10;4.95;;;23.80;99.90;;;;;;5188092;28;20272;-76
2022/06/06 07:20:04;;;;;;;11.88;4.90;;;23.70;99.90;;;;;;5187907;28;20025;-76
2022/06/06 07:22:59;;;;;;;11.80;3.83;;;23.60;99.90;;;;;;5189239;28;20041;-76
2022/06/06 07:25:39;;;;;;;7.25;3.35;;;23.40;99.90;;;;;;5183045;28;20026;-75
2022/06/06 07:28:13;;;;;;;5.07;3.70;;;23.40;99.90;;;;;;5179348;28;20137;-76
2022/06/06 07:31:20;;;;;;;10.45;3.55;;;23.20;99.90;;;;;;5169040;28;20026;-76
2022/06/06 07:34:10;;;;;;;11.48;4.10;;;23.20;99.90;;;;;;5168141;28;20029;-76
2022/06/06 07:36:50;;;;;;;10.63;3.70;;;23.20;99.90;;;;;;5168921;28;20036;-77
2022/06/06 07:39:20;;;;;;;;;;;23.20;99.90;;;;;;5169401;28;20026;-77
2022/06/06 07:41:57;;;;;;;8.85;3.78;;;23.40;99.90;;;;;;5168766;28;19960;-76
2022/06/06 07:45:03;;;;;;;7.78;3.92;;;23.40;99.90;;;;;;5167534;28;20036;-76
2022/06/06 07:48:01;;;;;;;4.80;3.65;;;23.20;99.90;;;;;;5125469;28;20049;-76
2022/06/06 07:50:59;;;;;;;7.72;4.30;;;22.90;99.90;;;;;;5168842;28;20019;-77
2022/06/06 07:53:56;;;;;;;21.08;4.45;;;22.80;99.90;;;;;;5169251;28;20047;-76
2022/06/06 07:57:04;;;;;;;8.90;4.50;;;22.80;99.90;;;;;;5187230;28;20045;-76
2022/06/06 08:00:03;;;;;;;7.80;3.00;;;22.50;99.90;;;;;;5179073;28;20058;-75
2022/06/06 08:02:43;;;;;;;13.02;2.72;;;22.20;99.90;;;;;;5168374;28;20029;-76
2022/06/06 08:05:51;;;;;;;3.90;2.55;;;22.10;99.90;;;;;;5186579;28;20450;-76
2022/06/06 08:08:44;;;;;;;14.57;2.30;;;22.00;99.90;;;;;;5188580;28;20029;-75
2022/06/06 08:11:45;;;;;;;3.22;2.30;;;21.60;99.90;;;;;;5188568;28;20033;-75
2022/06/06 08:14:17;;;;;;;6.00;2.42;;;21.60;99.90;;;;;;5183197;28;20096;-75
2022/06/06 08:16:57;;;;;;;7.15;3.00;;;21.60;99.90;;;;;;5185477;28;20034;-75
2022/06/06 08:20:02;;;;;;;5.03;2.80;;;21.50;99.90;;;;;;5168239;28;20113;-76
2022/06/06 08:22:35;;;;;;;7.70;3.47;;;21.40;99.90;;;;;;5168280;28;20034;-76
2022/06/06 08:25:06;;;;;;;6.30;3.35;;;21.20;99.90;;;;;;5176834;28;20018;-76
2022/06/06 08:27:40;;;;;;;7.82;3.15;;;21.20;99.90;;;;;;5203227;28;20081;-76
2022/06/06 08:30:11;;;;;;;8.68;3.95;;;21.10;99.90;;;;;;5186099;28;20030;-76
2022/06/06 08:32:42;;;;;;;4.03;3.10;;;20.90;99.90;;;;;;5167697;28;20142;-75
2022/06/06 08:35:14;;;;;;;10.60;4.35;;;20.90;99.90;;;;;;5167212;28;20030;-74
2022/06/06 08:38:06;;;;;;;13.18;4.65;;;20.90;99.90;;;;;;5167718;28;20022;-75
2022/06/06 08:41:08;;;;;;;11.40;5.00;;;20.60;99.90;;;;;;5167484;28;20114;-74
2022/06/06 08:44:20;;;;;;;10.27;4.80;;;20.40;99.90;;;;;;5169884;28;20477;-74
2022/06/06 08:47:03;;;;;;;10.38;5.85;;;20.30;99.90;;;;;;5180316;28;20381;-74
2022/06/06 08:53:07;;;;;;;8.10;5.70;;;20.30;99.90;;;;;;5136551;28;20510;-74
2022/06/06 08:55:38;;;;;;;10.35;5.72;;;20.30;99.90;;;;;;5174963;28;20069;-74
2022/06/06 08:58:26;;;;;;;9.95;4.78;;;20.20;99.90;;;;;;5175847;28;20038;-75
2022/06/06 09:01:00;;;;;;;8.80;5.72;;;19.90;99.90;;;;;;5176273;28;20501;-74
2022/06/06 09:03:45;;;;;;;14.32;4.93;;;19.80;99.90;;;;;;5176029;28;20025;-75
2022/06/06 09:06:53;;;;;;;13.70;5.05;;;19.50;99.90;;;;;;5179574;28;20034;-76
2022/06/06 09:09:27;;;;;;;12.30;5.28;;;19.60;99.90;;;;;;5186777;28;20382;-74
2022/06/06 09:12:29;;;;;;;14.48;5.55;;;19.50;99.90;;;;;;5166854;28;20037;-74
2022/06/06 09:15:35;;;;;;;12.75;6.00;;;19.60;99.90;;;;;;5184902;28;20065;-76
2022/06/06 09:18:31;;;;;;;27.85;5.60;;;19.80;99.90;;;;;;5187413;28;20449;-74
2022/06/06 09:21:05;;;;;;;17.98;6.78;;;19.60;99.90;;;;;;5172217;28;20030;-76
2022/06/06 09:23:56;;;;;;;18.98;6.18;;;19.30;99.90;;;;;;5167022;28;20014;-75
2022/06/06 09:26:52;;;;;;;14.70;6.40;;;19.40;99.90;;;;;;5166937;28;20050;-74
2022/06/06 09:29:44;;;;;;;19.65;5.90;;;19.40;99.90;;;;;;5166637;28;20084;-76
2022/06/06 09:32:47;;;;;;;18.77;6.13;;;19.20;99.90;;;;;;5170075;28;20088;-76
2022/06/06 09:35:40;;;;;;;19.42;5.97;;;19.30;99.90;;;;;;5175088;28;20091;-75
2022/06/06 09:38:46;;;;;;;12.45;5.53;;;19.00;99.90;;;;;;5186104;28;20022;-75
2022/06/06 09:41:55;;;;;;;16.98;5.45;;;18.90;99.90;;;;;;5178226;28;20105;-76
2022/06/06 09:44:34;;;;;;;16.05;6.18;;;19.20;99.90;;;;;;5104335;29;20531;-75
2022/06/06 09:47:24;;;;;;;15.60;5.25;;;19.50;99.90;;;;;;5160410;28;20034;-76
2022/06/06 09:50:01;;;;;;;;;;;19.70;99.90;;;;;;5166606;28;20406;-74
2022/06/06 09:52:51;;;;;;;12.63;4.50;;;20.00;99.90;;;;;;5166381;28;19960;-74
2022/06/06 10:01:45;;;;;;;11.30;3.80;;;21.10;99.90;;;;;;5171154;28;20124;-74
2022/06/06 10:04:50;;;;;;;11.63;3.83;;;21.10;99.90;;;;;;5180210;28;20032;-74
2022/06/06 10:07:38;;;;;;;12.77;3.80;;;20.90;99.90;;;;;;5171349;28;20026;-75
2022/06/06 10:10:28;;;;;;;9.13;3.50;;;21.30;99.90;;;;;;5177183;28;20109;-75
2022/06/06 10:13:23;;;;;;;16.10;4.50;;;21.20;99.90;;;;;;5177077;28;20034;-76
2022/06/06 10:16:02;;;;;;;18.77;4.78;;;21.10;99.90;;;;;;5169935;28;20486;-75
2022/06/06 10:19:00;;;;;;;12.52;4.15;;;21.10;99.90;;;;;;5172370;28;20027;-74
2022/06/06 10:21:40;;;;;;;9.13;4.22;;;20.60;99.90;;;;;;5167322;28;20033;-75
2022/06/06 10:24:34;;;;;;;;;;;20.60;99.90;;;;;;5175875;28;20038;-76
2022/06/06 10:27:27;;;;;;;15.85;5.03;;;20.60;99.90;;;;;;5171900;28;20393;-74
2022/06/06 10:30:13;;;;;;;9.80;4.38;;;21.00;99.90;;;;;;5166158;28;20034;-74
2022/06/06 10:33:34;;;;;;;7.82;3.95;;;20.80;99.90;;;;;;5175666;28;20042;-76
2022/06/06 10:36:29;;;;;;;12.45;4.07;;;21.10;99.90;;;;;;5133165;28;20060;-75
2022/06/06 10:39:18;;;;;;;11.75;4.05;;;20.80;99.90;;;;;;5170225;28;20027;-75
2022/06/06 10:42:04;;;;;;;7.55;3.88;;;21.10;99.90;;;;;;5165921;28;20386;-75
2022/06/06 10:45:19;;;;;;;13.65;3.85;;;21.00;99.90;;;;;;5180932;28;20088;-74
2022/06/06 10:48:15;;;;;;;12.73;4.35;;;21.00;99.90;;;;;;5161870;28;20046;-75
2022/06/06 10:54:44;;;;;;;15.23;4.55;;;22.00;99.90;;;;;;5165927;28;20042;-74
2022/06/06 10:57:36;;;;;;;12.98;4.43;;;22.30;99.90;;;;;;5164190;28;20050;-75
2022/06/06 11:00:26;;;;;;;9.30;4.18;;;22.30;99.90;;;;;;5165654;28;20046;-75
2022/06/06 11:03:25;;;;;;;8.30;3.33;;;22.20;99.90;;;;;;5165724;28;20076;-74
2022/06/06 11:06:22;;;;;;;11.73;4.20;;;21.90;99.90;;;;;;5173939;28;20347;-74
2022/06/06 11:09:19;;;;;;;10.57;3.40;;;22.00;99.90;;;;;;5182564;28;20540;-75
2022/06/06 11:12:20;;;;;;;8.70;4.13;;;21.90;99.90;;;;;;5164553;28;20127;-77
2022/06/06 11:14:53;;;;;;;10.48;3.75;;;22.20;99.90;;;;;;5189364;28;20036;-76
2022/06/06 11:17:36;;;;;;;7.47;3.28;;;21.70;99.90;;;;;;5204731;28;20044;-75
2022/06/06 11:20:28;;;;;;;7.82;2.83;;;21.30;99.90;;;;;;5189342;28;20381;-77
2022/06/06 11:23:05;;;;;;;4.97;2.35;;;21.50;99.90;;;;;;5189583;28;20080;-76
2022/06/06 11:25:54;;;;;;;6.75;2.95;;;21.40;99.90;;;;;;5189540;28;20050;-75
2022/06/06 11:29:03;;;;;;;6.15;2.42;;;21.70;99.90;;;;;;5171968;28;20077;-76
2022/06/06 11:32:01;;;;;;;7.33;3.07;;;22.00;99.90;;;;;;5169063;28;20026;-75
2022/06/06 11:35:20;;;;;;;7.15;2.75;;;22.20;99.90;;;;;;5168915;28;20014;-77
2022/06/06 11:38:13;;;;;;;6.38;2.20;;;22.30;99.90;;;;;;5109159;28;20046;-77
2022/06/06 11:41:11;;;;;;;3.65;2.25;;;22.90;99.90;;;;;;5154926;28;20391;-75
2022/06/06 11:44:04;;;;;;;7.03;3.00;;;22.70;99.90;;;;;;5167632;28;20125;-77
2022/06/06 11:46:55;;;;;;;6.60;2.80;;;22.70;99.90;;;;;;5168846;28;20030;-75
2022/06/06 11:50:00;;;;;;;6.47;3.38;;;22.70;99.90;;;;;;5167392;28;20105;-74
2022/06/06 11:52:59;;;;;;;6.22;3.17;;;23.10;99.90;;;;;;5167431;28;20553;-74
2022/06/06 11:55:51;;;;;;;4.95;2.85;;;22.90;99.90;;;;;;5168489;28;20065;-73
2022/06/06 11:58:25;;;;;;;6.93;3.05;;;22.90;99.90;;;;;;5168236;28;20105;-74
2022/06/06 12:01:36;;;;;;;9.15;2.80;;;23.00;99.90;;;;;;5167252;28;20057;-74
2022/06/06 12:04:33;;;;;;;7.30;2.97;;;23.40;99.90;;;;;;5167480;28;20504;-75
2022/06/06 12:07:04;;;;;;;8.93;2.85;;;22.80;99.90;;;;;;5168382;28;20022;-76
2022/06/06 12:10:10;;;;;;;5.32;2.55;;;22.50;99.90;;;;;;5168284;28;20351;-75
2022/06/06 12:13:05;;;;;;;6.38;2.35;;;23.00;99.90;;;;;;5168249;28;20344;-74
2022/06/06 12:15:38;;;;;;;8.88;2.72;;;23.50;99.90;;;;;;5168110;28;20122;-78
2022/06/06 12:18:20;;;;;;;6.47;2.67;;;23.50;99.90;;;;;;5166672;28;20032;-75
2022/06/06 12:21:15;;;;;;;4.68;2.70;;;23.70;99.90;;;;;;5167615;28;20034;-77
2022/06/06 12:24:16;;;;;;;6.35;2.60;;;24.00;99.90;;;;;;5168205;28;20025;-76
2022/06/06 12:26:58;;;;;;;8.07;2.60;;;23.40;99.90;;;;;;5168050;28;20045;-77
2022/06/06 12:30:04;;;;;;;3.85;1.95;;;23.70;99.90;;;;;;5166606;28;20450;-74
2022/06/06 12:32:54;;;;;;;7.15;2.67;;;23.30;99.90;;;;;;5166636;28;20038;-78
2022/06/06 12:35:27;;;;;;;;;;;23.50;99.90;;;;;;5168199;28;20352;-76
2022/06/06 12:38:10;;;;;;;4.25;2.47;;;23.00;99.90;;;;;;5167672;28;19916;-77
2022/06/06 12:40:51;;;;;;;5.10;2.42;;;23.30;99.90;;;;;;5167830;28;20038;-75
2022/06/06 12:43:29;;;;;;;3.25;2.10;;;23.60;99.90;;;;;;5167594;28;20026;-75
2022/06/06 12:46:13;;;;;;;6.22;2.50;;;23.40;99.90;;;;;;5167486;28;20030;-77
2022/06/06 12:48:56;;;;;;;4.93;2.30;;;23.90;99.90;;;;;;5167639;28;20023;-77
2022/06/06 12:52:17;;;;;;;7.53;2.40;;;23.60;99.90;;;;;;5167645;28;20029;-77
2022/06/06 12:58:07;;;;;;;8.32;2.67;;;23.90;99.90;;;;;;5085585;29;20636;-76
2022/06/06 13:04:06;;;;;;;4.50;2.40;;;23.00;99.90;;;;;;5073015;29;20400;-78
2022/06/06 13:07:04;;;;;;;7.30;2.70;;;23.00;99.90;;;;;;5085509;29;20040;-78
2022/06/06 13:09:55;;;;;;;6.68;2.80;;;23.30;99.90;;;;;;5085502;29;20038;-78
2022/06/06 13:13:01;;;;;;;4.63;2.00;;;23.30;99.90;;;;;;5085240;29;20051;-78
2022/06/06 13:15:51;;;;;;;4.68;2.13;;;23.20;99.90;;;;;;5072288;29;20058;-77
2022/06/06 13:18:48;;;;;;;4.47;2.17;;;23.30;99.90;;;;;;5084763;29;20100;-76
2022/06/06 13:21:31;;;;;;;7.57;2.05;;;22.90;99.90;;;;;;5085127;29;20512;-78
2022/06/06 13:24:32;;;;;;;4.90;2.17;;;23.10;99.90;;;;;;5096205;29;20190;-77
2022/06/06 13:27:30;;;;;;;6.07;2.05;;;23.10;99.90;;;;;;5104322;29;20046;-77
2022/06/06 13:30:22;;;;;;;7.93;2.20;;;23.20;99.90;;;;;;5104669;29;20035;-78
2022/06/06 13:33:22;;;;;;;7.28;2.60;;;23.00;99.90;;;;;;5181070;28;20497;-77
2022/06/06 13:36:24;;;;;;;8.38;2.30;;;23.30;99.90;;;;;;5168197;28;20465;-75
2022/06/06 13:39:13;;;;;;;4.18;2.20;;;23.40;99.90;;;;;;5169286;28;20034;-76
2022/06/06 13:42:15;;;;;;;8.60;2.87;;;22.80;99.90;;;;;;5174203;28;20385;-76
2022/06/06 13:45:10;;;;;;;6.47;2.35;;;22.60;99.90;;;;;;5171904;28;20112;-75
2022/06/06 13:47:59;;;;;;;5.97;2.70;;;22.40;99.90;;;;;;5170093;28;20033;-78
2022/06/06 13:50:48;;;;;;;6.18;2.65;;;22.90;99.90;;;;;;5180060;28;20489;-77
2022/06/06 13:53:24;;;;;;;7.07;2.83;;;22.40;99.90;;;;;;5184736;28;20026;-77
2022/06/06 13:56:20;;;;;;;8.25;2.75;;;22.10;99.90;;;;;;5173918;28;20046;-76
2022/06/06 13:59:10;;;;;;;6.68;2.90;;;22.70;99.90;;;;;;5183248;28;20046;-78
2022/06/06 14:02:16;;;;;;;6.45;3.22;;;22.70;99.90;;;;;;5186727;28;20108;-76
2022/06/06 14:05:19;;;;;;;5.85;2.13;;;22.80;99.90;;;;;;5124116;29;20035;-78
2022/06/06 14:08:05;;;;;;;5.97;2.50;;;22.40;99.90;;;;;;5182195;28;20026;-75
2022/06/06 14:23:38;;;;;;;5.43;2.15;;;23.00;99.90;;;;;;5267863;27;20874;-74
2022/06/06 14:26:13;;;;;;;5.55;2.20;;;22.70;99.90;;;;;;5248142;28;20371;-78
2022/06/06 14:28:46;;;;;;;7.18;2.28;;;22.20;99.90;;;;;;5266297;28;20028;-73
2022/06/06 14:31:52;;;;;;;3.53;1.92;;;22.30;99.90;;;;;;5266211;28;20020;-74
2022/06/06 14:34:44;;;;;;;3.35;2.05;;;22.70;99.90;;;;;;5237592;28;20434;-74
2022/06/06 14:37:18;;;;;;;4.15;2.20;;;22.10;99.90;;;;;;5247984;28;20155;-73
2022/06/06 14:39:52;;;;;;;6.15;2.25;;;22.00;99.90;;;;;;5265989;28;20035;-74
2022/06/06 14:42:33;;;;;;;4.38;2.15;;;21.90;99.90;;;;;;5266035;28;20383;-74
2022/06/06 14:45:10;;;;;;;6.88;2.70;;;22.10;99.90;;;;;;5247770;28;20340;-73
2022/06/06 14:48:07;;;;;;;3.80;2.05;;;22.10;99.90;;;;;;5264265;28;20029;-76
2022/06/06 14:50:57;;;;;;;3.25;1.95;;;22.00;99.90;;;;;;5244611;28;20028;-74
2022/06/06 14:53:32;;;;;;;4.57;2.30;;;22.10;99.90;;;;;;5203202;28;20037;-73
2022/06/06 14:56:19;;;;;;;7.68;2.33;;;21.90;99.90;;;;;;5203579;28;20056;-75
2022/06/06 14:58:55;;;;;;;9.25;3.00;;;21.90;99.90;;;;;;5203547;28;20105;-74
2022/06/06 15:01:28;;;;;;;11.20;4.30;;;21.90;99.90;;;;;;5240481;28;20021;-73
2022/06/06 15:04:15;;;;;;;20.05;12.27;;;21.80;99.90;;;;;;5244559;28;20078;-74
2022/06/06 15:06:55;;;;;;;6.57;3.33;;;21.60;99.90;;;;;;5218134;28;20425;-73